createdAt,value
2022-11-20T00:01:54.413Z,16.94
2022-11-20T00:04:23.936Z,16.93
2022-11-20T00:06:53.006Z,16.90
2022-11-20T00:09:22.732Z,16.89
2022-11-20T00:11:52.329Z,16.87
2022-11-20T00:14:21.337Z,16.80
2022-11-20T00:16:50.560Z,16.62
2022-11-20T00:19:20.031Z,16.64
2022-11-20T00:21:49.964Z,16.47
2022-11-20T00:24:18.835Z,16.46
2022-11-20T00:26:47.926Z,16.53
2022-11-20T00:29:17.827Z,16.49
2022-11-20T00:31:46.981Z,16.43
2022-11-20T00:34:16.078Z,16.42
2022-11-20T00:36:45.179Z,16.41
2022-11-20T00:39:14.195Z,16.44
2022-11-20T00:41:43.499Z,16.42
2022-11-20T00:44:12.333Z,16.41
2022-11-20T00:46:41.249Z,16.41
2022-11-20T00:49:10.529Z,16.36
2022-11-20T00:51:39.720Z,16.35
2022-11-20T00:54:08.758Z,16.34
2022-11-20T00:56:37.918Z,16.33
2022-11-20T00:59:06.995Z,16.36
2022-11-20T01:01:39.514Z,16.37
2022-11-20T01:04:10.162Z,16.26
2022-11-20T01:06:41.968Z,16.39
2022-11-20T01:09:17.059Z,16.54
2022-11-20T01:11:48.659Z,16.37
2022-11-20T01:14:23.272Z,16.54
2022-11-20T01:16:54.473Z,16.47
2022-11-20T01:19:26.236Z,16.56
2022-11-20T01:21:57.700Z,16.65
2022-11-20T01:24:28.974Z,16.54
2022-11-20T01:26:58.807Z,16.54
2022-11-20T01:29:28.766Z,16.58
2022-11-20T01:31:58.275Z,16.55
2022-11-20T01:34:28.228Z,16.53
2022-11-20T01:36:58.133Z,16.28
2022-11-20T01:39:29.679Z,16.45
2022-11-20T01:42:17.615Z,16.45
2022-11-20T01:45:02.375Z,16.57
2022-11-20T01:47:34.849Z,16.49
2022-11-20T01:50:41.843Z,16.62
2022-11-20T01:53:16.819Z,16.57
2022-11-20T01:55:52.679Z,16.60
2022-11-20T01:58:29.852Z,16.59
2022-11-20T02:01:00.012Z,16.54
2022-11-20T02:03:31.147Z,16.56
2022-11-20T02:06:33.377Z,16.62
2022-11-20T02:09:03.457Z,16.50
2022-11-20T02:11:34.092Z,16.55
2022-11-20T02:14:03.871Z,16.45
2022-11-20T02:16:51.029Z,16.72
2022-11-20T02:19:30.640Z,16.74
2022-11-20T02:22:00.412Z,16.67
2022-11-20T02:24:30.043Z,16.68
2022-11-20T02:27:13.506Z,16.87
2022-11-20T02:29:48.746Z,16.74
2022-11-20T02:32:25.908Z,16.86
2022-11-20T02:34:55.848Z,16.74
2022-11-20T02:37:31.624Z,16.93
2022-11-20T02:40:01.518Z,16.82
2022-11-20T02:42:31.635Z,16.91
2022-11-20T02:45:01.122Z,16.76
2022-11-20T02:47:30.845Z,16.87
2022-11-20T02:50:01.278Z,16.90
2022-11-20T02:52:31.060Z,16.80
2022-11-20T02:55:01.005Z,16.74
2022-11-20T02:57:30.296Z,16.85
2022-11-20T03:00:00.295Z,17.06
2022-11-20T03:02:33.455Z,17.15
2022-11-20T03:05:03.312Z,17.19
2022-11-20T03:07:32.821Z,17.28
2022-11-20T03:10:02.350Z,17.32
2022-11-20T03:12:32.048Z,17.23
2022-11-20T03:15:01.639Z,17.34
2022-11-20T03:17:32.115Z,17.20
2022-11-20T03:20:01.256Z,17.31
2022-11-20T03:22:32.747Z,17.47
2022-11-20T03:25:02.508Z,17.38
2022-11-20T03:27:36.666Z,17.45
2022-11-20T03:30:07.497Z,17.52
2022-11-20T03:32:37.302Z,17.61
2022-11-20T03:35:07.648Z,17.53
2022-11-20T03:37:37.434Z,17.89
2022-11-20T03:40:07.455Z,17.91
2022-11-20T03:42:48.906Z,18.06
2022-11-20T03:45:19.856Z,18.02
2022-11-20T03:47:49.275Z,18.00
2022-11-20T03:50:18.544Z,18.00
2022-11-20T03:52:47.619Z,18.10
2022-11-20T03:55:16.529Z,17.97
2022-11-20T03:57:46.010Z,18.29
2022-11-20T04:00:15.922Z,18.31
2022-11-20T04:02:45.579Z,18.42
2022-11-20T04:05:14.484Z,18.29
2022-11-20T04:07:43.955Z,18.39
2022-11-20T04:10:12.963Z,18.34
2022-11-20T04:12:41.939Z,18.27
2022-11-20T04:15:11.779Z,18.77
2022-11-20T04:17:40.856Z,18.78
2022-11-20T04:20:10.221Z,18.93
2022-11-20T04:22:39.421Z,18.65
2022-11-20T04:25:08.967Z,18.72
2022-11-20T04:27:37.903Z,18.95
2022-11-20T04:30:07.536Z,19.30
2022-11-20T04:32:37.434Z,19.38
2022-11-20T04:35:07.385Z,19.25
2022-11-20T04:37:36.847Z,19.33
2022-11-20T04:40:06.393Z,19.45
2022-11-20T04:42:35.481Z,19.38
2022-11-20T04:45:04.567Z,19.57
2022-11-20T04:47:36.136Z,19.84
2022-11-20T04:50:05.372Z,19.90
2022-11-20T04:52:34.927Z,20.08
2022-11-20T04:55:03.888Z,20.17
2022-11-20T04:57:33.117Z,19.96
2022-11-20T05:00:02.133Z,20.27
2022-11-20T05:02:35.444Z,20.43
2022-11-20T05:05:04.791Z,20.51
2022-11-20T05:07:33.748Z,20.43
2022-11-20T05:10:02.777Z,20.58
2022-11-20T05:12:31.746Z,20.67
2022-11-20T05:15:00.780Z,20.81
2022-11-20T05:17:29.742Z,20.79
2022-11-20T05:19:58.756Z,20.89
2022-11-20T05:22:27.866Z,21.00
2022-11-20T05:24:56.929Z,21.05
2022-11-20T05:27:26.249Z,21.06
2022-11-20T05:29:55.069Z,21.02
2022-11-20T05:32:27.492Z,21.24
2022-11-20T05:34:56.627Z,21.33
2022-11-20T05:37:25.469Z,21.42
2022-11-20T05:39:55.015Z,21.46
2022-11-20T05:42:33.237Z,21.45
2022-11-20T05:45:08.084Z,21.65
2022-11-20T05:47:37.346Z,21.65
2022-11-20T05:50:06.517Z,21.65
2022-11-20T05:52:35.816Z,21.70
2022-11-20T05:55:05.280Z,21.76
2022-11-20T05:57:34.515Z,21.86
2022-11-20T06:00:05.834Z,22.00
2022-11-20T06:02:38.362Z,22.15
2022-11-20T06:05:08.014Z,22.22
2022-11-20T06:07:37.416Z,22.28
2022-11-20T06:10:06.869Z,22.33
2022-11-20T06:12:35.872Z,22.35
2022-11-20T06:15:06.266Z,22.31
2022-11-20T06:17:35.244Z,22.42
2022-11-20T06:20:04.725Z,22.53
2022-11-20T06:22:34.828Z,22.52
2022-11-20T06:25:03.962Z,22.66
2022-11-20T06:27:32.941Z,22.64
2022-11-20T06:30:02.317Z,22.73
2022-11-20T06:32:31.684Z,22.79
2022-11-20T06:35:00.669Z,22.73
2022-11-20T06:37:29.615Z,22.75
2022-11-20T06:39:58.868Z,22.91
2022-11-20T06:42:28.221Z,22.84
2022-11-20T06:44:57.195Z,22.98
2022-11-20T06:47:26.213Z,22.98
2022-11-20T06:49:55.606Z,23.12
2022-11-20T06:52:24.478Z,23.01
2022-11-20T06:54:53.420Z,23.11
2022-11-20T06:57:22.727Z,23.15
2022-11-20T06:59:51.796Z,23.18
2022-11-20T07:02:20.725Z,23.15
2022-11-20T07:04:49.880Z,23.11
2022-11-20T07:07:18.947Z,23.28
2022-11-20T07:09:47.866Z,23.32
2022-11-20T07:12:17.021Z,23.30
2022-11-20T07:14:45.829Z,23.33
2022-11-20T07:17:15.137Z,23.52
2022-11-20T07:19:45.031Z,23.45
2022-11-20T07:22:13.842Z,23.52
2022-11-20T07:24:45.946Z,23.54
2022-11-20T07:27:15.266Z,23.59
2022-11-20T07:29:44.197Z,23.76
2022-11-20T07:32:13.221Z,23.62
2022-11-20T07:34:42.155Z,23.71
2022-11-20T07:37:11.156Z,23.70
2022-11-20T07:39:40.457Z,23.75
2022-11-20T07:42:10.255Z,23.78
2022-11-20T07:44:39.887Z,23.89
2022-11-20T07:47:09.150Z,23.78
2022-11-20T07:49:38.145Z,23.85
2022-11-20T07:52:07.069Z,23.96
2022-11-20T07:54:36.273Z,23.97
2022-11-20T07:57:05.412Z,23.97
2022-11-20T07:59:34.489Z,24.05
2022-11-20T08:02:03.376Z,24.07
2022-11-20T08:04:32.467Z,24.16
2022-11-20T08:07:01.573Z,24.25
2022-11-20T08:09:31.090Z,24.16
2022-11-20T08:12:18.462Z,24.23
2022-11-20T08:14:47.525Z,24.10
2022-11-20T08:17:16.372Z,24.27
2022-11-20T08:19:45.346Z,24.30
2022-11-20T08:22:15.227Z,24.28
2022-11-20T08:24:45.494Z,24.26
2022-11-20T08:27:14.552Z,24.30
2022-11-20T08:29:43.394Z,24.37
2022-11-20T08:32:12.578Z,24.37
2022-11-20T08:34:41.380Z,24.40
2022-11-20T08:37:10.345Z,24.45
2022-11-20T08:39:39.478Z,24.48
2022-11-20T08:42:11.673Z,24.59
2022-11-20T08:44:40.661Z,24.43
2022-11-20T08:47:10.109Z,24.50
2022-11-20T08:49:39.229Z,24.46
2022-11-20T08:52:08.336Z,24.49
2022-11-20T08:54:37.341Z,24.52
2022-11-20T08:57:06.508Z,24.50
2022-11-20T09:00:05.611Z,24.57
2022-11-20T09:02:24.978Z,24.52
2022-11-20T09:04:55.368Z,24.38
2022-11-20T09:07:24.378Z,24.52
2022-11-20T09:10:16.526Z,24.60
2022-11-20T09:12:42.510Z,24.58
2022-11-20T09:15:12.192Z,24.61
2022-11-20T09:17:41.516Z,24.70
2022-11-20T09:20:11.873Z,24.73
2022-11-20T09:22:43.020Z,24.77
2022-11-20T09:25:12.148Z,24.66
2022-11-20T09:27:43.496Z,24.49
2022-11-20T09:30:12.994Z,24.63
2022-11-20T09:32:42.970Z,24.63
2022-11-20T09:35:12.869Z,24.58
2022-11-20T09:37:42.090Z,24.61
2022-11-20T09:40:24.899Z,24.79
2022-11-20T09:42:59.769Z,24.80
2022-11-20T09:45:46.548Z,24.80
2022-11-20T09:48:35.583Z,24.61
2022-11-20T09:51:27.132Z,24.74
2022-11-20T09:54:14.334Z,24.62
2022-11-20T09:57:15.737Z,24.71
2022-11-20T09:59:49.162Z,24.61
2022-11-20T10:02:39.430Z,24.72
2022-11-20T10:05:30.783Z,24.70
2022-11-20T10:08:21.055Z,24.58
2022-11-20T10:11:01.387Z,24.59
2022-11-20T10:13:36.889Z,24.51
2022-11-20T10:16:05.931Z,24.53
2022-11-20T10:18:41.105Z,24.52
2022-11-20T10:21:18.764Z,24.54
2022-11-20T10:24:09.419Z,24.56
2022-11-20T10:26:54.891Z,24.45
2022-11-20T10:29:36.593Z,24.52
2022-11-20T10:32:16.381Z,24.60
2022-11-20T10:34:51.751Z,24.52
2022-11-20T10:37:33.691Z,24.54
2022-11-20T10:40:08.374Z,24.41
2022-11-20T10:42:45.666Z,24.44
2022-11-20T10:45:27.070Z,24.44
2022-11-20T10:48:13.470Z,24.36
2022-11-20T10:51:07.373Z,24.39
2022-11-20T10:53:46.422Z,24.46
2022-11-20T10:56:20.696Z,24.40
2022-11-20T10:58:52.708Z,24.29
2022-11-20T11:01:28.483Z,24.30
2022-11-20T11:03:59.446Z,24.22
2022-11-20T11:06:46.230Z,24.27
2022-11-20T11:09:24.296Z,24.17
2022-11-20T11:11:54.087Z,24.10
2022-11-20T11:14:23.012Z,24.06
2022-11-20T11:16:57.752Z,24.07
2022-11-20T11:19:26.936Z,23.97
2022-11-20T11:21:59.790Z,23.98
2022-11-20T11:24:46.285Z,23.93
2022-11-20T11:27:19.806Z,23.91
2022-11-20T11:29:49.420Z,23.80
2022-11-20T11:32:23.667Z,23.82
2022-11-20T11:35:08.474Z,23.87
2022-11-20T11:37:40.569Z,23.74
2022-11-20T11:40:28.537Z,23.75
2022-11-20T11:43:04.915Z,23.63
2022-11-20T11:45:34.474Z,23.51
2022-11-20T11:48:05.971Z,23.50
2022-11-20T11:50:36.349Z,23.31
2022-11-20T11:53:25.294Z,23.44
2022-11-20T11:56:12.254Z,23.32
2022-11-20T11:58:48.048Z,23.23
2022-11-20T12:01:43.401Z,23.16
2022-11-20T12:04:30.062Z,23.01
2022-11-20T12:07:45.631Z,22.93
2022-11-20T12:10:52.258Z,22.92
2022-11-20T12:13:49.180Z,22.81
2022-11-20T12:16:22.278Z,22.67
2022-11-20T12:18:55.740Z,22.57
2022-11-20T12:21:53.639Z,22.46
2022-11-20T12:24:55.726Z,22.31
2022-11-20T12:27:49.785Z,22.20
2022-11-20T12:30:21.089Z,21.96
2022-11-20T12:33:19.727Z,22.01
2022-11-20T12:35:51.792Z,21.94
2022-11-20T12:38:51.434Z,22.01
2022-11-20T12:42:12.275Z,22.04
2022-11-20T12:45:13.894Z,21.92
2022-11-20T12:47:46.040Z,22.09
2022-11-20T12:50:25.812Z,22.12
2022-11-20T12:53:00.879Z,22.11
2022-11-20T12:55:50.161Z,22.10
2022-11-20T12:58:37.861Z,21.94
2022-11-20T13:01:43.096Z,22.02
2022-11-20T13:04:32.692Z,22.04
2022-11-20T13:07:05.034Z,21.99
2022-11-20T13:09:37.267Z,21.97
2022-11-20T13:12:31.811Z,22.01
2022-11-20T13:15:25.368Z,22.01
2022-11-20T13:18:02.293Z,21.97
2022-11-20T13:20:44.843Z,21.96
2022-11-20T13:23:14.192Z,21.83
2022-11-20T13:25:43.393Z,21.77
2022-11-20T13:28:12.568Z,21.71
2022-11-20T13:31:00.749Z,21.69
2022-11-20T13:33:30.076Z,21.33
2022-11-20T13:36:08.557Z,21.27
2022-11-20T13:38:50.341Z,21.21
2022-11-20T13:41:33.750Z,21.10
2022-11-20T13:44:14.994Z,20.97
2022-11-20T13:46:47.365Z,20.89
2022-11-20T13:49:46.766Z,20.92
2022-11-20T13:52:51.169Z,20.85
2022-11-20T13:55:26.049Z,20.64
2022-11-20T13:58:18.907Z,20.78
2022-11-20T14:00:59.368Z,20.77
2022-11-20T14:03:58.956Z,20.81
2022-11-20T14:06:29.631Z,20.69
2022-11-20T14:09:00.467Z,20.65
2022-11-20T14:11:31.569Z,20.62
2022-11-20T14:14:02.326Z,20.52
2022-11-20T14:16:34.490Z,20.48
2022-11-20T14:19:33.101Z,20.52
2022-11-20T14:22:28.989Z,20.47
2022-11-20T14:25:23.621Z,20.40
2022-11-20T14:28:03.841Z,20.34
2022-11-20T14:30:46.441Z,20.29
2022-11-20T14:33:17.507Z,20.18
2022-11-20T14:35:49.706Z,20.11
2022-11-20T14:38:22.331Z,20.07
2022-11-20T14:40:51.333Z,19.99
2022-11-20T14:43:27.477Z,19.95
2022-11-20T14:46:06.353Z,20.05
2022-11-20T14:48:59.972Z,20.07
2022-11-20T14:51:43.725Z,20.09
2022-11-20T14:54:19.154Z,20.05
2022-11-20T14:57:03.629Z,20.07
2022-11-20T14:59:36.149Z,19.99
2022-11-20T15:02:12.792Z,19.95
2022-11-20T15:04:53.121Z,19.95
2022-11-20T15:07:30.530Z,19.86
2022-11-20T15:10:29.085Z,19.92
2022-11-20T15:13:12.776Z,19.86
2022-11-20T15:15:51.454Z,19.91
2022-11-20T15:18:29.885Z,19.90
2022-11-20T15:21:02.990Z,19.81
2022-11-20T15:23:32.593Z,19.68
2022-11-20T15:26:01.556Z,19.70
2022-11-20T15:28:35.985Z,19.74
2022-11-20T15:31:06.247Z,19.65
2022-11-20T15:33:36.281Z,19.64
2022-11-20T15:36:06.109Z,19.61
2022-11-20T15:38:35.150Z,19.54
2022-11-20T15:41:04.121Z,19.49
2022-11-20T15:43:33.489Z,19.45
2022-11-20T15:46:08.437Z,19.50
2022-11-20T15:48:43.227Z,19.45
2022-11-20T15:51:32.967Z,19.56
2022-11-20T15:54:03.870Z,19.39
2022-11-20T15:56:35.320Z,19.37
2022-11-20T15:59:04.428Z,19.34
2022-11-20T16:01:33.591Z,19.33
2022-11-20T16:04:04.128Z,19.30
2022-11-20T16:06:33.222Z,19.31
2022-11-20T16:09:02.282Z,19.26
2022-11-20T16:11:31.266Z,19.25
2022-11-20T16:14:18.643Z,19.19
2022-11-20T16:16:48.145Z,19.10
2022-11-20T16:19:17.589Z,19.13
2022-11-20T16:21:47.260Z,19.09
2022-11-20T16:24:18.135Z,19.08
2022-11-20T16:26:47.538Z,19.08
2022-11-20T16:29:16.530Z,19.11
2022-11-20T16:31:45.536Z,19.11
2022-11-20T16:34:14.703Z,19.09
2022-11-20T16:36:45.522Z,19.11
2022-11-20T16:39:18.999Z,19.05
2022-11-20T16:41:51.069Z,19.04
2022-11-20T16:44:20.194Z,19.00
2022-11-20T16:46:49.280Z,18.98
2022-11-20T16:49:19.066Z,18.95
2022-11-20T16:51:49.205Z,18.93
2022-11-20T16:54:21.131Z,18.86
2022-11-20T16:56:52.123Z,18.86
2022-11-20T16:59:21.700Z,18.80
2022-11-20T17:01:50.994Z,18.65
2022-11-20T17:04:20.048Z,18.67
2022-11-20T17:06:49.248Z,18.63
2022-11-20T17:09:18.736Z,18.63
2022-11-20T17:11:50.232Z,18.58
2022-11-20T17:14:19.408Z,18.61
2022-11-20T17:16:48.596Z,18.57
2022-11-20T17:19:17.978Z,18.58
2022-11-20T17:21:46.906Z,18.49
2022-11-20T17:24:17.475Z,18.37
2022-11-20T17:26:46.867Z,18.42
2022-11-20T17:29:19.158Z,18.50
2022-11-20T17:31:50.265Z,18.49
2022-11-20T17:34:19.879Z,18.44
2022-11-20T17:36:49.452Z,18.43
2022-11-20T17:39:19.292Z,18.34
2022-11-20T17:42:08.257Z,18.20
2022-11-20T17:44:37.614Z,18.16
2022-11-20T17:47:06.483Z,18.13
2022-11-20T17:49:35.832Z,18.14
2022-11-20T17:52:05.621Z,18.11
2022-11-20T17:54:34.674Z,18.11
2022-11-20T17:57:22.111Z,18.09
2022-11-20T17:59:51.476Z,18.03
2022-11-20T18:02:20.325Z,17.95
2022-11-20T18:04:49.596Z,17.94
2022-11-20T18:07:18.656Z,17.90
2022-11-20T18:09:47.727Z,17.88
2022-11-20T18:12:16.667Z,17.88
2022-11-20T18:14:45.630Z,17.90
2022-11-20T18:17:16.757Z,17.90
2022-11-20T18:20:07.190Z,17.89
2022-11-20T18:22:38.589Z,17.83
2022-11-20T18:25:08.222Z,17.66
2022-11-20T18:27:37.765Z,17.57
2022-11-20T18:30:08.194Z,17.71
2022-11-20T18:32:37.737Z,17.66
2022-11-20T18:35:07.449Z,17.68
2022-11-20T18:37:36.343Z,17.66
2022-11-20T18:40:06.042Z,17.65
2022-11-20T18:42:57.104Z,17.74
2022-11-20T18:45:26.579Z,17.73
2022-11-20T18:47:55.426Z,17.72
2022-11-20T18:50:24.619Z,17.69
2022-11-20T18:52:54.158Z,17.68
2022-11-20T18:55:26.023Z,17.68
2022-11-20T18:57:56.284Z,17.68
2022-11-20T19:00:25.799Z,17.60
2022-11-20T19:02:56.054Z,17.63
2022-11-20T19:05:25.258Z,17.57
2022-11-20T19:07:54.171Z,17.57
2022-11-20T19:10:25.496Z,17.59
2022-11-20T19:12:54.796Z,17.58
2022-11-20T19:15:23.679Z,17.59
2022-11-20T19:17:53.201Z,17.57
2022-11-20T19:20:22.197Z,17.50
2022-11-20T19:22:55.220Z,17.49
2022-11-20T19:25:24.354Z,17.36
2022-11-20T19:27:53.541Z,17.26
2022-11-20T19:30:22.820Z,17.20
2022-11-20T19:32:51.770Z,17.20
2022-11-20T19:35:20.949Z,17.26
2022-11-20T19:37:50.002Z,17.28
2022-11-20T19:40:18.916Z,17.29
2022-11-20T19:42:48.063Z,17.31
2022-11-20T19:45:17.258Z,17.33
2022-11-20T19:48:06.564Z,17.34
2022-11-20T19:50:35.863Z,17.33
2022-11-20T19:53:05.206Z,17.38
2022-11-20T19:55:34.193Z,17.30
2022-11-20T19:58:05.394Z,17.25
2022-11-20T20:00:34.576Z,17.25
2022-11-20T20:03:06.172Z,17.26
2022-11-20T20:05:35.868Z,17.33
2022-11-20T20:08:05.118Z,17.24
2022-11-20T20:10:34.322Z,17.19
2022-11-20T20:13:03.599Z,17.23
2022-11-20T20:15:33.107Z,17.26
2022-11-20T20:18:02.173Z,17.21
2022-11-20T20:20:31.193Z,17.25
2022-11-20T20:23:00.212Z,17.26
2022-11-20T20:25:29.325Z,17.26
2022-11-20T20:27:58.364Z,17.26
2022-11-20T20:30:27.815Z,17.15
2022-11-20T20:32:56.923Z,17.14
2022-11-20T20:35:26.164Z,17.14
2022-11-20T20:37:55.745Z,17.13
2022-11-20T20:40:24.963Z,17.12
2022-11-20T20:42:53.879Z,17.12
2022-11-20T20:45:23.183Z,17.12
2022-11-20T20:47:52.251Z,17.11
2022-11-20T20:50:21.779Z,17.12
2022-11-20T20:52:51.301Z,17.11
2022-11-20T20:55:20.330Z,17.08
2022-11-20T20:57:49.407Z,17.08
2022-11-20T21:00:18.749Z,17.04
2022-11-20T21:02:47.675Z,17.01
2022-11-20T21:05:17.219Z,17.06
2022-11-20T21:08:04.540Z,17.06
2022-11-20T21:10:35.763Z,17.18
2022-11-20T21:13:04.842Z,17.12
2022-11-20T21:15:33.768Z,17.07
2022-11-20T21:18:06.088Z,17.00
2022-11-20T21:20:53.795Z,16.89
2022-11-20T21:23:23.079Z,16.90
2022-11-20T21:25:51.954Z,16.88
2022-11-20T21:28:21.181Z,16.93
2022-11-20T21:30:50.368Z,16.87
2022-11-20T21:33:19.538Z,16.86
2022-11-20T21:35:48.369Z,16.85
2022-11-20T21:38:17.548Z,16.82
2022-11-20T21:40:46.676Z,16.78
2022-11-20T21:43:16.062Z,16.76
2022-11-20T21:45:45.056Z,16.71
2022-11-20T21:48:13.955Z,16.70
2022-11-20T21:50:43.509Z,16.69
2022-11-20T21:53:12.433Z,16.72
2022-11-20T21:55:41.426Z,16.84
2022-11-20T21:58:10.706Z,16.82
2022-11-20T22:00:39.837Z,16.85
2022-11-20T22:03:08.957Z,16.80
2022-11-20T22:05:37.932Z,16.86
2022-11-20T22:08:07.349Z,16.93
2022-11-20T22:10:36.381Z,16.99
2022-11-20T22:13:23.793Z,17.01
2022-11-20T22:16:00.864Z,17.00
2022-11-20T22:18:30.320Z,16.99
2022-11-20T22:21:04.142Z,17.07
2022-11-20T22:23:33.382Z,17.12
2022-11-20T22:26:11.068Z,17.26
2022-11-20T22:28:41.144Z,17.19
2022-11-20T22:31:12.323Z,17.19
2022-11-20T22:33:42.015Z,17.23
2022-11-20T22:36:17.116Z,17.24
2022-11-20T22:38:46.593Z,17.19
2022-11-20T22:41:28.229Z,17.33
2022-11-20T22:44:08.424Z,17.31
2022-11-20T22:46:39.276Z,17.27
2022-11-20T22:49:12.334Z,17.25
2022-11-20T22:51:42.996Z,17.23
2022-11-20T22:54:14.034Z,17.27
2022-11-20T22:56:43.342Z,17.19
2022-11-20T22:59:12.429Z,17.16
2022-11-20T23:01:41.612Z,17.15
2022-11-20T23:04:12.651Z,17.16
2022-11-20T23:06:41.857Z,17.09
2022-11-20T23:09:12.501Z,17.11
2022-11-20T23:11:41.874Z,17.03
2022-11-20T23:14:16.282Z,17.01
2022-11-20T23:16:45.394Z,16.91
2022-11-20T23:19:15.668Z,16.89
2022-11-20T23:21:44.878Z,16.79
2022-11-20T23:24:14.036Z,16.76
2022-11-20T23:26:43.300Z,16.81
2022-11-20T23:29:13.090Z,16.80
2022-11-20T23:31:42.190Z,16.79
2022-11-20T23:34:11.688Z,16.75
2022-11-20T23:36:41.134Z,16.66
2022-11-20T23:39:10.344Z,16.56
2022-11-20T23:41:39.452Z,16.52
2022-11-20T23:44:08.577Z,16.48
2022-11-20T23:46:37.720Z,16.46
2022-11-20T23:49:07.007Z,16.39
2022-11-20T23:51:36.018Z,16.42
2022-11-20T23:54:05.167Z,16.46
2022-11-20T23:56:34.271Z,16.53
2022-11-20T23:59:03.414Z,16.57
